sensor_id;sensor_type;location;lat;lon;timestamp;P1;durP1;ratioP1;P2;durP2;ratioP2
33268;SDS011;19640;50.944;5.260;2023-06-19T00:01:17;3.00;;;2.70;;
33268;SDS011;19640;50.944;5.260;2023-06-19T00:03:43;3.28;;;2.90;;
33268;SDS011;19640;50.944;5.260;2023-06-19T00:06:08;2.90;;;2.60;;
33268;SDS011;19640;50.944;5.260;2023-06-19T00:08:34;2.75;;;2.40;;
33268;SDS011;19640;50.944;5.260;2023-06-19T00:11:01;2.95;;;2.35;;
33268;SDS011;19640;50.944;5.260;2023-06-19T00:13:27;4.40;;;2.78;;
33268;SDS011;19640;50.944;5.260;2023-06-19T00:15:53;3.17;;;2.88;;
33268;SDS011;19640;50.944;5.260;2023-06-19T00:18:18;3.92;;;2.70;;
33268;SDS011;19640;50.944;5.260;2023-06-19T00:20:45;3.22;;;2.65;;
33268;SDS011;19640;50.944;5.260;2023-06-19T00:23:11;4.55;;;3.05;;
33268;SDS011;19640;50.944;5.260;2023-06-19T00:25:42;3.33;;;3.03;;
33268;SDS011;19640;50.944;5.260;2023-06-19T00:28:09;3.15;;;2.63;;
33268;SDS011;19640;50.944;5.260;2023-06-19T00:30:36;2.70;;;2.50;;
33268;SDS011;19640;50.944;5.260;2023-06-19T00:33:02;2.97;;;2.70;;
33268;SDS011;19640;50.944;5.260;2023-06-19T00:35:29;2.55;;;2.35;;
33268;SDS011;19640;50.944;5.260;2023-06-19T00:37:55;3.70;;;3.10;;
33268;SDS011;19640;50.944;5.260;2023-06-19T00:40:30;2.92;;;2.63;;
33268;SDS011;19640;50.944;5.260;2023-06-19T00:42:58;4.10;;;3.10;;
33268;SDS011;19640;50.944;5.260;2023-06-19T00:45:24;3.25;;;2.90;;
33268;SDS011;19640;50.944;5.260;2023-06-19T00:47:51;3.17;;;2.78;;
33268;SDS011;19640;50.944;5.260;2023-06-19T00:50:17;4.22;;;3.15;;
33268;SDS011;19640;50.944;5.260;2023-06-19T00:52:43;3.78;;;2.85;;
33268;SDS011;19640;50.944;5.260;2023-06-19T00:55:09;3.63;;;3.25;;
33268;SDS011;19640;50.944;5.260;2023-06-19T00:57:36;3.78;;;2.85;;
33268;SDS011;19640;50.944;5.260;2023-06-19T01:00:02;3.25;;;2.60;;
33268;SDS011;19640;50.944;5.260;2023-06-19T01:02:32;2.78;;;2.45;;
33268;SDS011;19640;50.944;5.260;2023-06-19T01:04:59;3.58;;;2.47;;
33268;SDS011;19640;50.944;5.260;2023-06-19T01:07:45;3.95;;;2.70;;
33268;SDS011;19640;50.944;5.260;2023-06-19T01:10:20;3.22;;;2.65;;
33268;SDS011;19640;50.944;5.260;2023-06-19T01:12:52;3.05;;;2.70;;
33268;SDS011;19640;50.944;5.260;2023-06-19T01:15:40;5.68;;;2.47;;
33268;SDS011;19640;50.944;5.260;2023-06-19T01:18:07;3.55;;;2.35;;
33268;SDS011;19640;50.944;5.260;2023-06-19T01:20:36;3.10;;;2.50;;
33268;SDS011;19640;50.944;5.260;2023-06-19T01:23:09;2.55;;;2.10;;
33268;SDS011;19640;50.944;5.260;2023-06-19T01:25:35;3.10;;;2.80;;
33268;SDS011;19640;50.944;5.260;2023-06-19T01:28:02;2.75;;;2.30;;
33268;SDS011;19640;50.944;5.260;2023-06-19T01:30:31;2.80;;;2.40;;
33268;SDS011;19640;50.944;5.260;2023-06-19T01:33:04;3.28;;;2.33;;
33268;SDS011;19640;50.944;5.260;2023-06-19T01:35:38;2.58;;;2.00;;
33268;SDS011;19640;50.944;5.260;2023-06-19T01:38:06;2.40;;;2.20;;
33268;SDS011;19640;50.944;5.260;2023-06-19T01:40:32;2.47;;;2.28;;
33268;SDS011;19640;50.944;5.260;2023-06-19T01:42:59;2.50;;;2.30;;
33268;SDS011;19640;50.944;5.260;2023-06-19T01:45:28;5.57;;;2.47;;
33268;SDS011;19640;50.944;5.260;2023-06-19T01:47:55;3.78;;;2.20;;
33268;SDS011;19640;50.944;5.260;2023-06-19T01:50:22;2.60;;;2.10;;
33268;SDS011;19640;50.944;5.260;2023-06-19T01:52:49;3.75;;;2.33;;
33268;SDS011;19640;50.944;5.260;2023-06-19T01:55:14;2.83;;;2.13;;
33268;SDS011;19640;50.944;5.260;2023-06-19T01:57:41;2.58;;;2.38;;
33268;SDS011;19640;50.944;5.260;2023-06-19T02:00:07;3.60;;;2.55;;
33268;SDS011;19640;50.944;5.260;2023-06-19T02:02:33;2.65;;;2.20;;
33268;SDS011;19640;50.944;5.260;2023-06-19T02:04:59;3.40;;;2.58;;
33268;SDS011;19640;50.944;5.260;2023-06-19T02:07:25;4.28;;;2.40;;
33268;SDS011;19640;50.944;5.260;2023-06-19T02:09:50;2.55;;;2.28;;
33268;SDS011;19640;50.944;5.260;2023-06-19T02:12:16;2.50;;;2.20;;
33268;SDS011;19640;50.944;5.260;2023-06-19T02:14:42;2.53;;;2.33;;
33268;SDS011;19640;50.944;5.260;2023-06-19T02:17:07;2.63;;;2.20;;
33268;SDS011;19640;50.944;5.260;2023-06-19T02:19:33;3.10;;;2.58;;
33268;SDS011;19640;50.944;5.260;2023-06-19T02:21:58;2.30;;;2.00;;
33268;SDS011;19640;50.944;5.260;2023-06-19T02:24:24;3.00;;;2.40;;
33268;SDS011;19640;50.944;5.260;2023-06-19T02:26:50;3.45;;;2.47;;
33268;SDS011;19640;50.944;5.260;2023-06-19T02:29:16;2.78;;;2.30;;
33268;SDS011;19640;50.944;5.260;2023-06-19T02:31:42;4.25;;;2.33;;
33268;SDS011;19640;50.944;5.260;2023-06-19T02:34:08;4.63;;;2.65;;
33268;SDS011;19640;50.944;5.260;2023-06-19T02:36:36;3.28;;;2.40;;
33268;SDS011;19640;50.944;5.260;2023-06-19T02:39:05;2.75;;;2.55;;
33268;SDS011;19640;50.944;5.260;2023-06-19T02:41:33;3.22;;;2.47;;
33268;SDS011;19640;50.944;5.260;2023-06-19T02:43:59;6.10;;;2.42;;
33268;SDS011;19640;50.944;5.260;2023-06-19T02:46:24;2.63;;;2.42;;
33268;SDS011;19640;50.944;5.260;2023-06-19T02:48:50;3.42;;;2.30;;
33268;SDS011;19640;50.944;5.260;2023-06-19T02:51:16;3.20;;;2.83;;
33268;SDS011;19640;50.944;5.260;2023-06-19T02:53:41;3.15;;;2.22;;
33268;SDS011;19640;50.944;5.260;2023-06-19T02:56:09;2.97;;;2.45;;
33268;SDS011;19640;50.944;5.260;2023-06-19T02:58:35;3.70;;;2.17;;
33268;SDS011;19640;50.944;5.260;2023-06-19T03:01:02;3.05;;;2.42;;
33268;SDS011;19640;50.944;5.260;2023-06-19T03:03:28;3.40;;;1.98;;
33268;SDS011;19640;50.944;5.260;2023-06-19T03:05:54;2.60;;;2.40;;
33268;SDS011;19640;50.944;5.260;2023-06-19T03:08:20;2.95;;;2.38;;
33268;SDS011;19640;50.944;5.260;2023-06-19T03:10:46;3.47;;;2.22;;
33268;SDS011;19640;50.944;5.260;2023-06-19T03:13:12;3.20;;;2.40;;
33268;SDS011;19640;50.944;5.260;2023-06-19T03:15:38;3.22;;;2.55;;
33268;SDS011;19640;50.944;5.260;2023-06-19T03:18:04;3.38;;;2.78;;
33268;SDS011;19640;50.944;5.260;2023-06-19T03:20:32;3.90;;;2.65;;
33268;SDS011;19640;50.944;5.260;2023-06-19T03:22:58;3.97;;;2.40;;
33268;SDS011;19640;50.944;5.260;2023-06-19T03:25:24;6.25;;;2.58;;
33268;SDS011;19640;50.944;5.260;2023-06-19T03:27:49;4.53;;;2.45;;
33268;SDS011;19640;50.944;5.260;2023-06-19T03:30:15;3.00;;;2.55;;
33268;SDS011;19640;50.944;5.260;2023-06-19T03:32:43;7.15;;;2.75;;
33268;SDS011;19640;50.944;5.260;2023-06-19T03:35:09;2.40;;;2.17;;
33268;SDS011;19640;50.944;5.260;2023-06-19T03:37:35;4.40;;;2.30;;
33268;SDS011;19640;50.944;5.260;2023-06-19T03:40:01;3.47;;;2.30;;
33268;SDS011;19640;50.944;5.260;2023-06-19T03:42:28;3.47;;;2.47;;
33268;SDS011;19640;50.944;5.260;2023-06-19T03:44:54;3.53;;;2.40;;
33268;SDS011;19640;50.944;5.260;2023-06-19T03:47:20;2.40;;;2.20;;
33268;SDS011;19640;50.944;5.260;2023-06-19T03:49:46;3.15;;;2.10;;
33268;SDS011;19640;50.944;5.260;2023-06-19T03:52:13;3.80;;;2.90;;
33268;SDS011;19640;50.944;5.260;2023-06-19T03:54:39;4.47;;;2.63;;
33268;SDS011;19640;50.944;5.260;2023-06-19T03:57:05;3.10;;;2.40;;
33268;SDS011;19640;50.944;5.260;2023-06-19T03:59:31;4.78;;;2.95;;
33268;SDS011;19640;50.944;5.260;2023-06-19T04:01:57;5.13;;;2.70;;
33268;SDS011;19640;50.944;5.260;2023-06-19T04:04:22;3.38;;;2.65;;
33268;SDS011;19640;50.944;5.260;2023-06-19T04:06:49;2.85;;;2.55;;
33268;SDS011;19640;50.944;5.260;2023-06-19T04:09:14;2.65;;;2.40;;
33268;SDS011;19640;50.944;5.260;2023-06-19T04:11:40;8.35;;;3.50;;
33268;SDS011;19640;50.944;5.260;2023-06-19T04:14:06;4.32;;;3.35;;
33268;SDS011;19640;50.944;5.260;2023-06-19T04:16:32;3.28;;;2.97;;
33268;SDS011;19640;50.944;5.260;2023-06-19T04:18:57;3.20;;;2.90;;
33268;SDS011;19640;50.944;5.260;2023-06-19T04:21:23;4.18;;;3.10;;
33268;SDS011;19640;50.944;5.260;2023-06-19T04:23:49;4.07;;;3.65;;
33268;SDS011;19640;50.944;5.260;2023-06-19T04:26:15;5.32;;;3.10;;
33268;SDS011;19640;50.944;5.260;2023-06-19T04:28:41;4.03;;;3.60;;
33268;SDS011;19640;50.944;5.260;2023-06-19T04:31:07;3.45;;;3.08;;
33268;SDS011;19640;50.944;5.260;2023-06-19T04:33:33;3.65;;;3.35;;
33268;SDS011;19640;50.944;5.260;2023-06-19T04:35:58;5.00;;;3.95;;
33268;SDS011;19640;50.944;5.260;2023-06-19T04:38:24;4.55;;;4.13;;
33268;SDS011;19640;50.944;5.260;2023-06-19T04:40:50;4.57;;;4.18;;
33268;SDS011;19640;50.944;5.260;2023-06-19T04:43:16;4.63;;;4.07;;
33268;SDS011;19640;50.944;5.260;2023-06-19T04:45:42;6.43;;;4.53;;
33268;SDS011;19640;50.944;5.260;2023-06-19T04:48:08;4.82;;;4.13;;
33268;SDS011;19640;50.944;5.260;2023-06-19T04:50:34;4.88;;;4.45;;
33268;SDS011;19640;50.944;5.260;2023-06-19T04:53:00;4.78;;;4.38;;
33268;SDS011;19640;50.944;5.260;2023-06-19T04:55:26;6.85;;;4.75;;
33268;SDS011;19640;50.944;5.260;2023-06-19T04:57:51;5.22;;;4.65;;
33268;SDS011;19640;50.944;5.260;2023-06-19T05:00:17;7.75;;;5.38;;
33268;SDS011;19640;50.944;5.260;2023-06-19T05:02:48;5.75;;;5.00;;
33268;SDS011;19640;50.944;5.260;2023-06-19T05:05:14;5.40;;;4.90;;
33268;SDS011;19640;50.944;5.260;2023-06-19T05:07:40;6.15;;;5.50;;
33268;SDS011;19640;50.944;5.260;2023-06-19T05:10:06;5.57;;;4.95;;
33268;SDS011;19640;50.944;5.260;2023-06-19T05:12:33;6.68;;;4.85;;
33268;SDS011;19640;50.944;5.260;2023-06-19T05:15:02;5.72;;;5.22;;
33268;SDS011;19640;50.944;5.260;2023-06-19T05:17:28;7.07;;;6.20;;
33268;SDS011;19640;50.944;5.260;2023-06-19T05:19:54;6.72;;;6.07;;
33268;SDS011;19640;50.944;5.260;2023-06-19T05:22:19;7.57;;;5.88;;
33268;SDS011;19640;50.944;5.260;2023-06-19T05:24:46;6.80;;;5.97;;
33268;SDS011;19640;50.944;5.260;2023-06-19T05:27:12;5.80;;;5.13;;
33268;SDS011;19640;50.944;5.260;2023-06-19T05:29:38;7.70;;;6.03;;
33268;SDS011;19640;50.944;5.260;2023-06-19T05:32:04;6.20;;;5.40;;
33268;SDS011;19640;50.944;5.260;2023-06-19T05:34:30;5.88;;;5.32;;
33268;SDS011;19640;50.944;5.260;2023-06-19T05:36:55;6.65;;;6.05;;
33268;SDS011;19640;50.944;5.260;2023-06-19T05:39:21;5.78;;;5.28;;
33268;SDS011;19640;50.944;5.260;2023-06-19T05:41:47;7.45;;;6.70;;
33268;SDS011;19640;50.944;5.260;2023-06-19T05:44:13;6.60;;;5.97;;
33268;SDS011;19640;50.944;5.260;2023-06-19T05:46:41;7.35;;;5.55;;
33268;SDS011;19640;50.944;5.260;2023-06-19T05:49:07;6.28;;;5.07;;
33268;SDS011;19640;50.944;5.260;2023-06-19T05:51:33;5.60;;;5.05;;
33268;SDS011;19640;50.944;5.260;2023-06-19T05:53:59;5.95;;;4.93;;
33268;SDS011;19640;50.944;5.260;2023-06-19T05:56:30;4.72;;;4.10;;
33268;SDS011;19640;50.944;5.260;2023-06-19T05:58:57;6.57;;;5.10;;
33268;SDS011;19640;50.944;5.260;2023-06-19T06:01:24;4.45;;;4.05;;
33268;SDS011;19640;50.944;5.260;2023-06-19T06:03:49;4.45;;;4.05;;
33268;SDS011;19640;50.944;5.260;2023-06-19T06:06:15;7.10;;;4.25;;
33268;SDS011;19640;50.944;5.260;2023-06-19T06:08:41;5.65;;;4.43;;
33268;SDS011;19640;50.944;5.260;2023-06-19T06:11:06;9.55;;;4.05;;
33268;SDS011;19640;50.944;5.260;2023-06-19T06:13:32;4.25;;;3.85;;
33268;SDS011;19640;50.944;5.260;2023-06-19T06:15:58;6.60;;;3.83;;
33268;SDS011;19640;50.944;5.260;2023-06-19T06:18:24;5.13;;;4.38;;
33268;SDS011;19640;50.944;5.260;2023-06-19T06:20:49;4.50;;;4.10;;
33268;SDS011;19640;50.944;5.260;2023-06-19T06:23:15;4.32;;;3.72;;
33268;SDS011;19640;50.944;5.260;2023-06-19T06:25:40;3.72;;;3.30;;
33268;SDS011;19640;50.944;5.260;2023-06-19T06:28:06;4.07;;;3.67;;
33268;SDS011;19640;50.944;5.260;2023-06-19T06:30:32;3.35;;;3.03;;
33268;SDS011;19640;50.944;5.260;2023-06-19T06:32:57;4.28;;;3.22;;
33268;SDS011;19640;50.944;5.260;2023-06-19T06:35:23;4.18;;;3.13;;
33268;SDS011;19640;50.944;5.260;2023-06-19T06:37:49;3.40;;;2.78;;
33268;SDS011;19640;50.944;5.260;2023-06-19T06:40:15;3.30;;;3.00;;
33268;SDS011;19640;50.944;5.260;2023-06-19T06:42:40;3.85;;;3.53;;
33268;SDS011;19640;50.944;5.260;2023-06-19T06:45:06;4.35;;;3.28;;
33268;SDS011;19640;50.944;5.260;2023-06-19T06:47:33;4.50;;;3.63;;
33268;SDS011;19640;50.944;5.260;2023-06-19T06:50:01;3.88;;;3.53;;
33268;SDS011;19640;50.944;5.260;2023-06-19T06:52:27;7.55;;;4.10;;
33268;SDS011;19640;50.944;5.260;2023-06-19T06:54:53;3.60;;;3.30;;
33268;SDS011;19640;50.944;5.260;2023-06-19T06:57:19;4.50;;;3.35;;
33268;SDS011;19640;50.944;5.260;2023-06-19T06:59:44;6.00;;;4.70;;
33268;SDS011;19640;50.944;5.260;2023-06-19T07:02:10;3.55;;;2.97;;
33268;SDS011;19640;50.944;5.260;2023-06-19T07:04:36;3.70;;;3.40;;
33268;SDS011;19640;50.944;5.260;2023-06-19T07:07:01;3.53;;;3.25;;
33268;SDS011;19640;50.944;5.260;2023-06-19T07:09:29;4.07;;;3.78;;
33268;SDS011;19640;50.944;5.260;2023-06-19T07:11:54;3.42;;;3.13;;
33268;SDS011;19640;50.944;5.260;2023-06-19T07:14:21;3.63;;;3.33;;
33268;SDS011;19640;50.944;5.260;2023-06-19T07:16:47;4.90;;;3.45;;
33268;SDS011;19640;50.944;5.260;2023-06-19T07:19:13;3.80;;;3.50;;
33268;SDS011;19640;50.944;5.260;2023-06-19T07:21:39;3.65;;;3.35;;
33268;SDS011;19640;50.944;5.260;2023-06-19T07:24:06;4.55;;;4.15;;
33268;SDS011;19640;50.944;5.260;2023-06-19T07:26:32;4.88;;;4.38;;
33268;SDS011;19640;50.944;5.260;2023-06-19T07:28:57;7.93;;;4.25;;
33268;SDS011;19640;50.944;5.260;2023-06-19T07:31:23;7.30;;;4.50;;
33268;SDS011;19640;50.944;5.260;2023-06-19T07:33:48;4.00;;;3.60;;
33268;SDS011;19640;50.944;5.260;2023-06-19T07:36:14;5.25;;;4.50;;
33268;SDS011;19640;50.944;5.260;2023-06-19T07:38:44;5.65;;;4.40;;
33268;SDS011;19640;50.944;5.260;2023-06-19T07:41:10;5.20;;;4.70;;
33268;SDS011;19640;50.944;5.260;2023-06-19T07:43:37;5.03;;;4.32;;
33268;SDS011;19640;50.944;5.260;2023-06-19T07:46:03;4.80;;;4.30;;
33268;SDS011;19640;50.944;5.260;2023-06-19T07:48:29;4.78;;;4.28;;
33268;SDS011;19640;50.944;5.260;2023-06-19T07:50:55;5.20;;;4.55;;
33268;SDS011;19640;50.944;5.260;2023-06-19T07:53:21;5.68;;;5.18;;
33268;SDS011;19640;50.944;5.260;2023-06-19T07:55:46;4.60;;;4.15;;
33268;SDS011;19640;50.944;5.260;2023-06-19T07:58:12;5.32;;;4.88;;
33268;SDS011;19640;50.944;5.260;2023-06-19T08:00:38;5.85;;;5.25;;
33268;SDS011;19640;50.944;5.260;2023-06-19T08:03:04;5.68;;;5.07;;
33268;SDS011;19640;50.944;5.260;2023-06-19T08:05:30;5.45;;;4.95;;
33268;SDS011;19640;50.944;5.260;2023-06-19T08:07:56;5.63;;;5.13;;
33268;SDS011;19640;50.944;5.260;2023-06-19T08:10:23;5.47;;;4.97;;
33268;SDS011;19640;50.944;5.260;2023-06-19T08:12:49;5.38;;;4.82;;
33268;SDS011;19640;50.944;5.260;2023-06-19T08:15:15;5.72;;;5.13;;
33268;SDS011;19640;50.944;5.260;2023-06-19T08:17:40;5.63;;;5.10;;
33268;SDS011;19640;50.944;5.260;2023-06-19T08:20:07;7.63;;;5.30;;
33268;SDS011;19640;50.944;5.260;2023-06-19T08:22:34;5.20;;;4.70;;
33268;SDS011;19640;50.944;5.260;2023-06-19T08:24:59;5.25;;;4.32;;
33268;SDS011;19640;50.944;5.260;2023-06-19T08:27:25;7.43;;;5.25;;
33268;SDS011;19640;50.944;5.260;2023-06-19T08:29:51;6.65;;;5.90;;
33268;SDS011;19640;50.944;5.260;2023-06-19T08:32:16;7.05;;;6.28;;
33268;SDS011;19640;50.944;5.260;2023-06-19T08:34:42;6.90;;;6.30;;
33268;SDS011;19640;50.944;5.260;2023-06-19T08:37:08;6.72;;;6.07;;
33268;SDS011;19640;50.944;5.260;2023-06-19T08:39:34;7.22;;;6.63;;
33268;SDS011;19640;50.944;5.260;2023-06-19T08:42:07;7.28;;;6.57;;
33268;SDS011;19640;50.944;5.260;2023-06-19T08:44:33;7.57;;;6.97;;
33268;SDS011;19640;50.944;5.260;2023-06-19T08:47:00;7.43;;;6.68;;
33268;SDS011;19640;50.944;5.260;2023-06-19T08:49:31;7.60;;;6.90;;
33268;SDS011;19640;50.944;5.260;2023-06-19T08:52:01;6.53;;;5.30;;
33268;SDS011;19640;50.944;5.260;2023-06-19T08:54:27;4.57;;;4.18;;
33268;SDS011;19640;50.944;5.260;2023-06-19T08:56:52;4.15;;;3.85;;
33268;SDS011;19640;50.944;5.260;2023-06-19T08:59:21;6.00;;;4.45;;
33268;SDS011;19640;50.944;5.260;2023-06-19T09:01:50;4.88;;;4.30;;
33268;SDS011;19640;50.944;5.260;2023-06-19T09:04:18;5.47;;;4.97;;
33268;SDS011;19640;50.944;5.260;2023-06-19T09:09:14;7.90;;;4.97;;
33268;SDS011;19640;50.944;5.260;2023-06-19T09:11:41;9.20;;;4.93;;
33268;SDS011;19640;50.944;5.260;2023-06-19T09:14:11;5.28;;;4.72;;
33268;SDS011;19640;50.944;5.260;2023-06-19T09:16:37;7.68;;;5.45;;
33268;SDS011;19640;50.944;5.260;2023-06-19T09:19:04;5.20;;;4.70;;
33268;SDS011;19640;50.944;5.260;2023-06-19T09:21:30;4.97;;;4.47;;
33268;SDS011;19640;50.944;5.260;2023-06-19T09:24:01;5.80;;;5.18;;
33268;SDS011;19640;50.944;5.260;2023-06-19T09:26:33;7.07;;;4.47;;
33268;SDS011;19640;50.944;5.260;2023-06-19T09:31:55;4.90;;;4.38;;
33268;SDS011;19640;50.944;5.260;2023-06-19T09:34:21;6.20;;;3.92;;
33268;SDS011;19640;50.944;5.260;2023-06-19T09:36:47;4.10;;;3.80;;
33268;SDS011;19640;50.944;5.260;2023-06-19T09:39:14;4.40;;;4.00;;
33268;SDS011;19640;50.944;5.260;2023-06-19T09:41:41;5.30;;;3.95;;
33268;SDS011;19640;50.944;5.260;2023-06-19T09:44:11;3.60;;;3.30;;
33268;SDS011;19640;50.944;5.260;2023-06-19T09:46:39;4.15;;;3.70;;
33268;SDS011;19640;50.944;5.260;2023-06-19T09:49:10;4.33;;;3.93;;
33268;SDS011;19640;50.944;5.260;2023-06-19T09:51:40;3.92;;;3.42;;
33268;SDS011;19640;50.944;5.260;2023-06-19T09:54:07;5.15;;;3.85;;
33268;SDS011;19640;50.944;5.260;2023-06-19T09:56:34;4.32;;;3.60;;
33268;SDS011;19640;50.944;5.260;2023-06-19T09:59:00;5.03;;;3.78;;
33268;SDS011;19640;50.944;5.260;2023-06-19T10:01:29;3.85;;;3.55;;
33268;SDS011;19640;50.944;5.260;2023-06-19T10:04:08;5.35;;;3.70;;
33268;SDS011;19640;50.944;5.260;2023-06-19T10:06:43;3.97;;;3.58;;
33268;SDS011;19640;50.944;5.260;2023-06-19T10:09:10;6.10;;;3.40;;
33268;SDS011;19640;50.944;5.260;2023-06-19T10:11:46;4.82;;;3.67;;
33268;SDS011;19640;50.944;5.260;2023-06-19T10:14:12;4.18;;;3.17;;
33268;SDS011;19640;50.944;5.260;2023-06-19T10:16:40;4.72;;;3.83;;
33268;SDS011;19640;50.944;5.260;2023-06-19T10:19:15;6.90;;;3.58;;
33268;SDS011;19640;50.944;5.260;2023-06-19T10:21:45;4.55;;;3.58;;
33268;SDS011;19640;50.944;5.260;2023-06-19T10:24:16;6.13;;;4.15;;
33268;SDS011;19640;50.944;5.260;2023-06-19T10:26:54;4.45;;;3.70;;
33268;SDS011;19640;50.944;5.260;2023-06-19T10:29:21;5.18;;;3.92;;
33268;SDS011;19640;50.944;5.260;2023-06-19T10:31:47;4.25;;;3.85;;
33268;SDS011;19640;50.944;5.260;2023-06-19T10:34:13;4.60;;;4.20;;
33268;SDS011;19640;50.944;5.260;2023-06-19T10:36:38;4.28;;;3.90;;
33268;SDS011;19640;50.944;5.260;2023-06-19T10:39:04;4.05;;;3.75;;
33268;SDS011;19640;50.944;5.260;2023-06-19T10:41:31;6.13;;;3.83;;
33268;SDS011;19640;50.944;5.260;2023-06-19T10:43:57;4.18;;;3.55;;
33268;SDS011;19640;50.944;5.260;2023-06-19T10:46:28;4.28;;;3.50;;
33268;SDS011;19640;50.944;5.260;2023-06-19T10:48:55;4.97;;;3.90;;
33268;SDS011;19640;50.944;5.260;2023-06-19T10:51:29;4.50;;;3.92;;
33268;SDS011;19640;50.944;5.260;2023-06-19T10:53:55;4.70;;;3.50;;
33268;SDS011;19640;50.944;5.260;2023-06-19T10:56:22;3.83;;;3.40;;
33268;SDS011;19640;50.944;5.260;2023-06-19T10:58:56;4.60;;;3.53;;
33268;SDS011;19640;50.944;5.260;2023-06-19T11:04:01;4.13;;;3.72;;
33268;SDS011;19640;50.944;5.260;2023-06-19T11:06:28;9.52;;;4.05;;
33268;SDS011;19640;50.944;5.260;2023-06-19T11:08:54;4.38;;;3.80;;
33268;SDS011;19640;50.944;5.260;2023-06-19T11:11:22;5.78;;;4.35;;
33268;SDS011;19640;50.944;5.260;2023-06-19T11:13:47;4.85;;;4.00;;
33268;SDS011;19640;50.944;5.260;2023-06-19T11:16:16;4.28;;;3.88;;
33268;SDS011;19640;50.944;5.260;2023-06-19T11:18:42;5.30;;;3.92;;
33268;SDS011;19640;50.944;5.260;2023-06-19T11:21:08;4.00;;;3.67;;
33268;SDS011;19640;50.944;5.260;2023-06-19T11:23:33;4.63;;;3.80;;
33268;SDS011;19640;50.944;5.260;2023-06-19T11:26:05;5.68;;;4.30;;
33268;SDS011;19640;50.944;5.260;2023-06-19T11:28:32;4.88;;;4.25;;
33268;SDS011;19640;50.944;5.260;2023-06-19T11:31:01;4.25;;;3.55;;
33268;SDS011;19640;50.944;5.260;2023-06-19T11:33:28;5.03;;;3.80;;
33268;SDS011;19640;50.944;5.260;2023-06-19T11:35:54;4.00;;;3.70;;
33268;SDS011;19640;50.944;5.260;2023-06-19T11:38:24;4.78;;;4.05;;
33268;SDS011;19640;50.944;5.260;2023-06-19T11:40:51;5.63;;;4.43;;
33268;SDS011;19640;50.944;5.260;2023-06-19T11:43:27;4.40;;;4.00;;
33268;SDS011;19640;50.944;5.260;2023-06-19T11:45:59;6.38;;;4.03;;
33268;SDS011;19640;50.944;5.260;2023-06-19T11:48:30;5.00;;;3.90;;
33268;SDS011;19640;50.944;5.260;2023-06-19T11:50:56;5.60;;;4.60;;
33268;SDS011;19640;50.944;5.260;2023-06-19T11:53:23;5.20;;;3.50;;
33268;SDS011;19640;50.944;5.260;2023-06-19T11:55:50;4.25;;;3.63;;
33268;SDS011;19640;50.944;5.260;2023-06-19T11:58:16;4.60;;;4.20;;
33268;SDS011;19640;50.944;5.260;2023-06-19T12:00:43;5.55;;;3.85;;
33268;SDS011;19640;50.944;5.260;2023-06-19T12:03:09;7.68;;;4.10;;
33268;SDS011;19640;50.944;5.260;2023-06-19T12:05:35;4.93;;;3.80;;
33268;SDS011;19640;50.944;5.260;2023-06-19T12:08:02;5.40;;;4.20;;
33268;SDS011;19640;50.944;5.260;2023-06-19T12:10:28;4.20;;;3.80;;
33268;SDS011;19640;50.944;5.260;2023-06-19T12:12:54;4.65;;;4.13;;
33268;SDS011;19640;50.944;5.260;2023-06-19T12:15:19;4.22;;;3.83;;
33268;SDS011;19640;50.944;5.260;2023-06-19T12:17:45;5.35;;;4.03;;
33268;SDS011;19640;50.944;5.260;2023-06-19T12:20:11;4.57;;;4.07;;
33268;SDS011;19640;50.944;5.260;2023-06-19T12:22:39;4.47;;;3.95;;
33268;SDS011;19640;50.944;5.260;2023-06-19T12:25:05;5.00;;;4.50;;
33268;SDS011;19640;50.944;5.260;2023-06-19T12:27:31;7.32;;;4.53;;
33268;SDS011;19640;50.944;5.260;2023-06-19T12:29:56;4.07;;;3.67;;
33268;SDS011;19640;50.944;5.260;2023-06-19T12:32:22;4.13;;;3.72;;
33268;SDS011;19640;50.944;5.260;2023-06-19T12:34:48;6.13;;;3.63;;
33268;SDS011;19640;50.944;5.260;2023-06-19T12:37:14;7.35;;;3.97;;
33268;SDS011;19640;50.944;5.260;2023-06-19T12:39:44;3.97;;;3.58;;
33268;SDS011;19640;50.944;5.260;2023-06-19T12:42:09;3.95;;;3.50;;
33268;SDS011;19640;50.944;5.260;2023-06-19T12:44:37;4.30;;;3.75;;
33268;SDS011;19640;50.944;5.260;2023-06-19T12:47:04;4.40;;;3.85;;
33268;SDS011;19640;50.944;5.260;2023-06-19T12:49:30;4.18;;;3.58;;
33268;SDS011;19640;50.944;5.260;2023-06-19T12:51:56;4.05;;;3.30;;
33268;SDS011;19640;50.944;5.260;2023-06-19T12:54:22;4.88;;;3.65;;
33268;SDS011;19640;50.944;5.260;2023-06-19T12:56:48;3.97;;;3.50;;
33268;SDS011;19640;50.944;5.260;2023-06-19T12:59:14;4.57;;;4.18;;
33268;SDS011;19640;50.944;5.260;2023-06-19T13:01:40;3.58;;;3.25;;
33268;SDS011;19640;50.944;5.260;2023-06-19T13:04:06;5.38;;;4.43;;
33268;SDS011;19640;50.944;5.260;2023-06-19T13:06:32;4.55;;;3.67;;
33268;SDS011;19640;50.944;5.260;2023-06-19T13:08:57;4.88;;;3.60;;
33268;SDS011;19640;50.944;5.260;2023-06-19T13:11:23;4.53;;;3.70;;
33268;SDS011;19640;50.944;5.260;2023-06-19T13:13:49;4.65;;;3.67;;
33268;SDS011;19640;50.944;5.260;2023-06-19T13:16:14;4.93;;;3.90;;
33268;SDS011;19640;50.944;5.260;2023-06-19T13:18:43;3.85;;;3.50;;
33268;SDS011;19640;50.944;5.260;2023-06-19T13:21:10;4.85;;;3.50;;
33268;SDS011;19640;50.944;5.260;2023-06-19T13:23:36;3.65;;;3.35;;
33268;SDS011;19640;50.944;5.260;2023-06-19T13:26:02;4.32;;;3.10;;
33268;SDS011;19640;50.944;5.260;2023-06-19T13:28:27;3.70;;;3.40;;
33268;SDS011;19640;50.944;5.260;2023-06-19T13:30:53;8.35;;;3.67;;
33268;SDS011;19640;50.944;5.260;2023-06-19T13:33:19;3.63;;;3.20;;
33268;SDS011;19640;50.944;5.260;2023-06-19T13:35:45;3.70;;;3.10;;
33268;SDS011;19640;50.944;5.260;2023-06-19T13:38:11;7.50;;;3.05;;
33268;SDS011;19640;50.944;5.260;2023-06-19T13:40:37;5.18;;;3.10;;
33268;SDS011;19640;50.944;5.260;2023-06-19T13:43:02;3.75;;;3.30;;
33268;SDS011;19640;50.944;5.260;2023-06-19T13:45:28;3.78;;;3.33;;
33268;SDS011;19640;50.944;5.260;2023-06-19T13:47:55;3.65;;;2.95;;
33268;SDS011;19640;50.944;5.260;2023-06-19T13:50:23;4.00;;;3.33;;
33268;SDS011;19640;50.944;5.260;2023-06-19T13:52:48;3.67;;;3.35;;
33268;SDS011;19640;50.944;5.260;2023-06-19T13:55:14;7.45;;;3.55;;
33268;SDS011;19640;50.944;5.260;2023-06-19T13:57:41;3.95;;;2.53;;
33268;SDS011;19640;50.944;5.260;2023-06-19T14:00:08;3.65;;;2.85;;
33268;SDS011;19640;50.944;5.260;2023-06-19T14:02:36;3.13;;;2.55;;
33268;SDS011;19640;50.944;5.260;2023-06-19T14:05:03;6.85;;;2.95;;
33268;SDS011;19640;50.944;5.260;2023-06-19T14:07:33;2.60;;;2.40;;
33268;SDS011;19640;50.944;5.260;2023-06-19T14:10:00;3.15;;;2.75;;
33268;SDS011;19640;50.944;5.260;2023-06-19T14:12:27;4.28;;;2.20;;
33268;SDS011;19640;50.944;5.260;2023-06-19T14:14:52;2.67;;;2.42;;
33268;SDS011;19640;50.944;5.260;2023-06-19T14:17:18;3.92;;;2.70;;
33268;SDS011;19640;50.944;5.260;2023-06-19T14:19:44;3.10;;;2.70;;
33268;SDS011;19640;50.944;5.260;2023-06-19T14:22:09;3.22;;;2.67;;
33268;SDS011;19640;50.944;5.260;2023-06-19T14:24:35;2.60;;;2.33;;
33268;SDS011;19640;50.944;5.260;2023-06-19T14:27:00;5.47;;;2.58;;
33268;SDS011;19640;50.944;5.260;2023-06-19T14:29:26;3.15;;;2.50;;
33268;SDS011;19640;50.944;5.260;2023-06-19T14:31:52;3.15;;;2.38;;
33268;SDS011;19640;50.944;5.260;2023-06-19T14:34:20;3.75;;;3.30;;
33268;SDS011;19640;50.944;5.260;2023-06-19T14:36:46;3.20;;;2.80;;
33268;SDS011;19640;50.944;5.260;2023-06-19T14:39:12;3.13;;;2.38;;
33268;SDS011;19640;50.944;5.260;2023-06-19T14:41:38;3.53;;;3.00;;
33268;SDS011;19640;50.944;5.260;2023-06-19T14:44:04;5.22;;;2.65;;
33268;SDS011;19640;50.944;5.260;2023-06-19T14:46:31;2.83;;;2.38;;
33268;SDS011;19640;50.944;5.260;2023-06-19T14:48:57;2.83;;;2.38;;
33268;SDS011;19640;50.944;5.260;2023-06-19T14:51:26;3.05;;;2.67;;
33268;SDS011;19640;50.944;5.260;2023-06-19T14:53:52;3.28;;;2.45;;